Time;durP1;ratioP1;P1;durP2;ratioP2;P2;SDS_P1;SDS_P2;PMS_P1;PMS_P2;Temp;Humidity;BMP_temperature;BMP_pressure;BME280_temperature;BME280_humidity;BME280_pressure;Samples;Min_cycle;Max_cycle;Signal;HPM_P1;HPM_P2
2023/07/16 00:00:00;;;;;;;;;;;20.20;99.90;20.20;99758.00;;;;334305;29;82678;-96
2023/07/16 00:00:12;;;;;;;;;;;20.20;99.90;20.20;99766.00;;;;333989;29;88341;-96
2023/07/16 00:00:24;;;;;;;;;;;20.20;99.90;20.10;99760.00;;;;334349;29;83455;-96
2023/07/16 00:00:36;;;;;;;;;;;20.10;99.90;20.20;99753.00;;;;335271;29;89503;-96
2023/07/16 00:00:50;;;;;;;;;;;20.10;99.90;20.10;99762.00;;;;335536;28;82665;-96
2023/07/16 00:01:02;;;;;;;;;;;20.10;99.90;20.10;99753.00;;;;332612;29;90007;-96
2023/07/16 00:01:14;;;;;;;;;;;20.10;99.90;20.10;99747.00;;;;337046;28;82535;-96
2023/07/16 00:01:26;;;;;;;;;;;20.10;99.90;20.00;99755.00;;;;335533;29;89432;-96
2023/07/16 00:01:38;;;;;;;;;;;20.10;99.90;20.00;99742.00;;;;333193;29;82438;-96
2023/07/16 00:01:50;;;;;;;;;;;20.10;99.90;20.00;99746.00;;;;336318;28;91236;-96
2023/07/16 00:02:02;;;;;;;;;;;20.10;99.90;20.00;99746.00;;;;334406;29;82456;-96
2023/07/16 00:02:14;;;;;;;;;;;20.10;99.90;20.10;99747.00;;;;335518;28;87266;-96
2023/07/16 00:02:27;;;;;;;;;;;20.00;99.90;20.00;99751.00;;;;334491;29;82434;-96
2023/07/16 00:02:40;;;;;;;;;;;20.10;99.90;20.00;99747.00;;;;334070;29;87378;-96
2023/07/16 00:02:52;;;;;;;;;;;20.10;99.90;20.10;99749.00;;;;334357;29;82543;-96
2023/07/16 00:03:04;;;;;;;;;;;20.00;99.90;20.10;99743.00;;;;335268;29;87400;-96
2023/07/16 00:03:16;;;;;;;;;;;20.00;99.90;20.00;99754.00;;;;335444;28;82553;-96
2023/07/16 00:03:28;;;;;;;;;;;20.00;99.90;20.00;99743.00;;;;335098;29;90693;-96
2023/07/16 00:03:40;;;;;;;;;;;20.00;99.90;20.00;99745.00;;;;333052;29;82559;-96
2023/07/16 00:03:52;;;;;;;;;;;20.00;99.90;20.00;99733.00;;;;333855;29;89556;-96
2023/07/16 00:04:05;;;;;;;;;;;20.00;99.90;19.90;99741.00;;;;332941;29;82527;-96
2023/07/16 00:04:17;;;;;;;;;;;20.00;99.90;20.00;99740.00;;;;335613;29;87336;-96
2023/07/16 00:04:30;;;;;;;;;;;20.00;99.90;20.00;99735.00;;;;334383;29;82328;-96
2023/07/16 00:04:42;;;;;;;;;;;20.00;99.90;20.00;99740.00;;;;332525;29;87214;-96
2023/07/16 00:04:54;;;;;;;;;;;20.00;99.90;20.00;99741.00;;;;334220;29;82581;-96
2023/07/16 00:05:07;;;;;;;;;;;20.00;99.90;20.00;99748.00;;;;335280;28;89340;-96
2023/07/16 00:05:19;;;;;;;;;;;20.00;99.90;20.10;99744.00;;;;334307;29;82578;-96
2023/07/16 00:05:31;;;;;;;;;;;20.00;99.90;20.10;99742.00;;;;333715;29;89069;-96
2023/07/16 00:05:43;;;;;;;;;;;20.00;99.90;19.90;99746.00;;;;336796;28;83060;-96
2023/07/16 00:05:55;;;;;;;;;;;20.00;99.90;19.90;99748.00;;;;332794;29;88224;-96
2023/07/16 00:06:08;;;;;;;;;;;20.00;99.90;19.90;99744.00;;;;335636;29;82441;-96
2023/07/16 00:06:19;;;;;;;;;;;20.00;99.90;19.90;99745.00;;;;333880;29;89046;-96
2023/07/16 00:06:31;;;;;;;;;;;20.00;99.90;19.90;99742.00;;;;334193;29;82560;-96
2023/07/16 00:06:43;;;;;;;;;;;20.00;99.90;20.00;99746.00;;;;335313;28;88365;-96
2023/07/16 00:06:55;;;;;;;;;;;19.90;99.90;20.00;99743.00;;;;334679;29;82622;-96
2023/07/16 00:07:07;;;;;;;;;;;19.90;99.90;20.00;99743.00;;;;336459;28;88612;-96
2023/07/16 00:07:20;;;;;;;;;;;19.90;99.90;20.00;99739.00;;;;337124;28;82623;-96
2023/07/16 00:07:32;;;;;;;;;;;19.90;99.90;20.00;99743.00;;;;335702;29;88393;-96
2023/07/16 00:07:44;;;;;;;;;;;19.90;99.90;20.00;99740.00;;;;336976;28;82580;-96
2023/07/16 00:07:56;;;;;;;;;;;19.90;99.90;20.00;99737.00;;;;336696;28;89497;-96
2023/07/16 00:08:08;;;;;;;;;;;19.90;99.90;20.00;99738.00;;;;336865;28;82645;-96
2023/07/16 00:08:21;;;;;;;;;;;19.90;99.90;20.00;99743.00;;;;335312;29;87340;-96
2023/07/16 00:08:33;;;;;;;;;;;19.90;99.90;19.90;99736.00;;;;337543;28;82535;-96
2023/07/16 00:08:45;;;;;;;;;;;19.90;99.90;20.00;99736.00;;;;335442;29;88366;-96
2023/07/16 00:08:57;;;;;;;;;;;19.90;99.90;19.90;99732.00;;;;336064;29;82554;-96
2023/07/16 00:09:09;;;;;;;;;;;19.90;99.90;19.90;99731.00;;;;334947;29;90174;-96
2023/07/16 00:09:21;;;;;;;;;;;19.90;99.90;20.00;99731.00;;;;336259;29;82546;-96
2023/07/16 00:09:33;;;;;;;;;;;19.90;99.90;20.00;99726.00;;;;336025;29;86961;-96
2023/07/16 00:09:46;;;;;;;;;;;19.90;99.90;20.00;99732.00;;;;337894;28;82556;-96
2023/07/16 00:10:02;;;;;;;;;;;19.90;99.90;19.90;99728.00;;;;337779;28;88200;-96
2023/07/16 00:10:17;;;;;;;;;;;19.90;99.90;19.90;99731.00;;;;337972;28;82530;-96
2023/07/16 00:10:35;;;;;;;;;;;19.90;99.90;19.70;99729.00;;;;336154;29;86868;-96
2023/07/16 00:10:47;;;;;;;;;;;19.80;99.90;19.80;99726.00;;;;339004;28;82668;-96
2023/07/16 00:10:59;;;;;;;;;;;19.80;99.90;19.80;99730.00;;;;336026;29;88516;-96
2023/07/16 00:11:11;;;;;;;;;;;19.80;99.90;19.80;99718.00;;;;336406;28;82442;-96
2023/07/16 00:11:23;;;;;;;;;;;19.80;99.90;19.80;99733.00;;;;334790;29;88223;-96
2023/07/16 00:11:35;;;;;;;;;;;19.80;99.90;19.80;99731.00;;;;336369;29;82507;-96
2023/07/16 00:11:48;;;;;;;;;;;19.80;99.90;19.80;99742.00;;;;335988;29;89060;-96
2023/07/16 00:12:02;;;;;;;;;;;19.80;99.90;19.90;99730.00;;;;338674;28;82591;-96
2023/07/16 00:12:14;;;;;;;;;;;19.80;99.90;20.00;99735.00;;;;334151;29;88161;-96
2023/07/16 00:12:26;;;;;;;;;;;19.80;99.90;20.00;99743.00;;;;336104;29;82550;-96
2023/07/16 00:12:39;;;;;;;;;;;19.80;99.90;20.00;99742.00;;;;335684;29;87325;-96
2023/07/16 00:12:51;;;;;;;;;;;19.80;99.90;20.00;99741.00;;;;336304;29;82456;-96
2023/07/16 00:13:03;;;;;;;;;;;19.80;99.90;20.00;99747.00;;;;335764;29;86947;-96
2023/07/16 00:13:15;;;;;;;;;;;19.80;99.90;20.00;99747.00;;;;336366;29;82563;-96
2023/07/16 00:13:27;;;;;;;;;;;19.80;99.90;20.00;99742.00;;;;335774;29;87219;-95
2023/07/16 00:13:45;;;;;;;;;;;19.90;99.90;19.90;99746.00;;;;337715;28;82643;-96
2023/07/16 00:13:59;;;;;;;;;;;19.90;99.90;19.90;99751.00;;;;336951;29;87345;-96
2023/07/16 00:14:12;;;;;;;;;;;19.80;99.90;19.90;99755.00;;;;337041;28;82484;-96
2023/07/16 00:14:24;;;;;;;;;;;19.80;99.90;19.90;99750.00;;;;336816;29;88312;-96
2023/07/16 00:14:36;;;;;;;;;;;19.80;99.90;19.90;99754.00;;;;335700;29;82593;-96
2023/07/16 00:14:49;;;;;;;;;;;19.80;99.90;19.90;99754.00;;;;335307;28;87399;-96
2023/07/16 00:15:02;;;;;;;;;;;19.80;99.90;19.90;99753.00;;;;337280;28;83654;-96
2023/07/16 00:15:15;;;;;;;;;;;19.80;99.90;19.90;99756.00;;;;336771;28;87443;-96
2023/07/16 00:15:27;;;;;;;;;;;19.80;99.90;19.90;99744.00;;;;338607;28;82528;-96
2023/07/16 00:15:39;;;;;;;;;;;19.80;99.90;19.90;99753.00;;;;336726;28;88507;-96
2023/07/16 00:15:52;;;;;;;;;;;19.80;99.90;20.00;99753.00;;;;337253;29;82511;-96
2023/07/16 00:16:04;;;;;;;;;;;19.80;99.90;20.00;99747.00;;;;337930;28;87382;-95
2023/07/16 00:16:16;;;;;;;;;;;19.90;99.90;19.90;99756.00;;;;335893;28;82608;-96
2023/07/16 00:16:29;;;;;;;;;;;19.80;99.90;19.90;99747.00;;;;337890;28;90596;-96
2023/07/16 00:16:41;;;;;;;;;;;19.80;99.90;19.90;99750.00;;;;337240;29;82550;-95
2023/07/16 00:16:54;;;;;;;;;;;19.80;99.90;19.90;99754.00;;;;338039;28;87523;-96
2023/07/16 00:17:07;;;;;;;;;;;19.80;99.90;19.90;99749.00;;;;338429;28;82575;-96
2023/07/16 00:17:19;;;;;;;;;;;19.80;99.90;20.00;99753.00;;;;335234;29;89252;-96
2023/07/16 00:17:33;;;;;;;;;;;19.80;99.90;20.00;99746.00;;;;335784;29;82517;-96
2023/07/16 00:17:46;;;;;;;;;;;19.80;99.90;19.90;99753.00;;;;335429;29;87402;-96
2023/07/16 00:17:59;;;;;;;;;;;19.80;99.90;19.90;99748.00;;;;338486;28;82593;-96
2023/07/16 00:20:46;;;;;;;;;;;19.70;99.90;19.90;99743.00;;;;312324;28;84542;-88
2023/07/16 00:20:59;;;;;;;;;;;19.70;99.90;20.00;99744.00;;;;337937;28;87148;-96
2023/07/16 00:21:11;;;;;;;;;;;19.80;99.90;20.00;99745.00;;;;333524;29;82649;-96
2023/07/16 00:21:24;;;;;;;;;;;19.80;99.90;19.90;99744.00;;;;331699;29;89072;-96
2023/07/16 00:21:37;;;;;;;;;;;19.80;99.90;20.00;99744.00;;;;334721;29;82574;-96
2023/07/16 00:21:49;;;;;;;;;;;19.80;99.90;19.80;99745.00;;;;334138;29;89129;-96
2023/07/16 00:22:02;;;;;;;;;;;19.80;99.90;19.70;99737.00;;;;334926;29;82422;-96
2023/07/16 00:22:16;;;;;;;;;;;19.70;99.90;19.70;99744.00;;;;334122;29;88401;-96
2023/07/16 00:22:28;;;;;;;;;;;19.80;99.90;19.70;99741.00;;;;332148;29;82560;-96
2023/07/16 00:22:40;;;;;;;;;;;19.70;99.90;19.80;99743.00;;;;334178;29;89424;-96
2023/07/16 00:22:54;;;;;;;;;;;19.70;99.90;19.90;99739.00;;;;334837;29;82538;-96
2023/07/16 00:23:06;;;;;;;;;;;19.70;99.90;19.90;99742.00;;;;334259;29;87520;-96
2023/07/16 00:23:18;;;;;;;;;;;19.70;99.90;19.90;99736.00;;;;336121;29;82589;-96
2023/07/16 00:23:31;;;;;;;;;;;19.70;99.90;19.80;99747.00;;;;333118;29;89126;-96
2023/07/16 00:23:44;;;;;;;;;;;19.70;99.90;19.90;99734.00;;;;334560;29;82546;-96
2023/07/16 00:23:56;;;;;;;;;;;19.70;99.90;19.90;99737.00;;;;334460;29;89237;-96
2023/07/16 00:24:09;;;;;;;;;;;19.70;99.90;19.80;99740.00;;;;334479;29;82649;-96
2023/07/16 00:24:21;;;;;;;;;;;19.70;99.90;19.90;99738.00;;;;331623;29;90257;-96
2023/07/16 00:24:33;;;;;;;;;;;19.70;99.90;19.90;99739.00;;;;336951;28;82580;-96
2023/07/16 00:24:46;;;;;;;;;;;19.70;99.90;19.80;99723.00;;;;336496;28;87148;-96
2023/07/16 00:24:58;;;;;;;;;;;19.70;99.90;19.80;99741.00;;;;334593;29;82530;-96
2023/07/16 00:25:11;;;;;;;;;;;19.70;99.90;19.80;99736.00;;;;331751;29;87089;-96
2023/07/16 00:25:24;;;;;;;;;;;19.70;99.90;19.90;99740.00;;;;332102;29;82569;-96
2023/07/16 00:25:36;;;;;;;;;;;19.70;99.90;19.90;99728.00;;;;331445;29;88949;-96
2023/07/16 00:25:48;;;;;;;;;;;19.70;99.90;19.80;99730.00;;;;335704;29;82321;-96
2023/07/16 00:26:00;;;;;;;;;;;19.70;99.90;19.90;99730.00;;;;332951;29;88404;-96
2023/07/16 00:26:13;;;;;;;;;;;19.70;99.90;19.90;99727.00;;;;331906;29;82604;-96
2023/07/16 00:26:26;;;;;;;;;;;19.70;99.90;19.80;99736.00;;;;334147;29;88092;-96
2023/07/16 00:26:39;;;;;;;;;;;19.70;99.90;19.80;99734.00;;;;333296;29;82507;-96
2023/07/16 00:26:52;;;;;;;;;;;19.70;99.90;19.80;99728.00;;;;332648;29;89129;-96
2023/07/16 00:27:05;;;;;;;;;;;19.70;99.90;19.90;99728.00;;;;335785;29;82593;-96
2023/07/16 00:27:17;;;;;;;;;;;19.70;99.90;19.90;99738.00;;;;335396;29;89555;-96
2023/07/16 00:27:30;;;;;;;;;;;19.70;99.90;19.80;99726.00;;;;333422;29;82534;-96
2023/07/16 00:27:42;;;;;;;;;;;19.70;99.90;19.90;99738.00;;;;332939;29;87261;-96
2023/07/16 00:27:54;;;;;;;;;;;19.70;99.90;19.90;99737.00;;;;335877;28;82596;-96
2023/07/16 00:28:06;;;;;;;;;;;19.70;99.90;19.90;99726.00;;;;332862;29;87195;-96
2023/07/16 00:28:18;;;;;;;;;;;19.80;99.90;20.00;99729.00;;;;333075;29;83087;-96
2023/07/16 00:28:30;;;;;;;;;;;19.80;99.90;20.00;99732.00;;;;334026;29;90228;-96
2023/07/16 00:28:42;;;;;;;;;;;19.80;99.90;20.00;99731.00;;;;335968;28;82554;-96
2023/07/16 00:28:55;;;;;;;;;;;19.80;99.90;20.00;99746.00;;;;337772;28;89045;-96
2023/07/16 00:29:07;;;;;;;;;;;19.80;99.90;19.90;99735.00;;;;337074;28;82526;-96
2023/07/16 00:29:19;;;;;;;;;;;19.80;99.90;19.80;99738.00;;;;334921;28;89597;-96
2023/07/16 00:29:32;;;;;;;;;;;19.80;99.90;19.80;99737.00;;;;336231;29;82494;-96
2023/07/16 00:29:44;;;;;;;;;;;19.80;99.90;19.90;99740.00;;;;334223;28;87230;-96
2023/07/16 00:29:56;;;;;;;;;;;19.80;99.90;20.00;99740.00;;;;333567;29;82450;-96
2023/07/16 00:30:08;;;;;;;;;;;19.80;99.90;20.00;99744.00;;;;335474;29;87227;-96
2023/07/16 00:30:24;;;;;;;;;;;19.80;99.90;19.90;99742.00;;;;334779;29;82601;-96
2023/07/16 00:30:36;;;;;;;;;;;19.80;99.90;19.80;99754.00;;;;335727;29;88229;-95
2023/07/16 00:30:48;;;;;;;;;;;19.80;99.90;19.80;99747.00;;;;337080;28;82586;-96
2023/07/16 00:31:01;;;;;;;;;;;19.80;99.90;19.90;99753.00;;;;331968;29;89314;-96
2023/07/16 00:31:13;;;;;;;;;;;19.80;99.90;19.90;99752.00;;;;334622;29;82562;-96
2023/07/16 00:31:26;;;;;;;;;;;19.80;99.90;19.90;99764.00;;;;334363;29;87481;-96
2023/07/16 00:31:38;;;;;;;;;;;19.80;99.90;19.90;99764.00;;;;333259;29;82648;-96
2023/07/16 00:31:50;;;;;;;;;;;19.80;99.90;20.00;99758.00;;;;337015;28;87281;-96
2023/07/16 00:32:02;;;;;;;;;;;19.80;99.90;19.90;99760.00;;;;333661;29;82559;-96
2023/07/16 00:32:15;;;;;;;;;;;19.80;99.90;20.00;99763.00;;;;336902;28;87160;-96
2023/07/16 00:32:27;;;;;;;;;;;19.80;99.90;19.90;99759.00;;;;335077;28;82593;-96
2023/07/16 00:32:40;;;;;;;;;;;19.80;99.90;19.90;99752.00;;;;333275;29;90725;-96
2023/07/16 00:32:52;;;;;;;;;;;19.80;99.90;19.90;99759.00;;;;337186;28;82632;-96
2023/07/16 00:33:04;;;;;;;;;;;19.80;99.90;19.90;99752.00;;;;334527;29;89085;-96
2023/07/16 00:33:17;;;;;;;;;;;19.80;99.90;19.90;99755.00;;;;333661;29;82669;-96
2023/07/16 00:33:29;;;;;;;;;;;19.80;99.90;19.80;99752.00;;;;334414;29;88384;-96
2023/07/16 00:33:41;;;;;;;;;;;19.80;99.90;19.70;99747.00;;;;336179;29;82548;-96
2023/07/16 00:33:53;;;;;;;;;;;19.80;99.90;19.60;99746.00;;;;333229;29;88765;-96
2023/07/16 00:34:05;;;;;;;;;;;19.70;99.90;19.70;99747.00;;;;334829;29;82529;-96
2023/07/16 00:34:18;;;;;;;;;;;19.70;99.90;19.80;99745.00;;;;334348;29;89588;-96
2023/07/16 00:34:30;;;;;;;;;;;19.70;99.90;19.70;99743.00;;;;336152;29;82592;-96
2023/07/16 00:34:42;;;;;;;;;;;19.70;99.90;19.80;99739.00;;;;331981;29;90180;-96
2023/07/16 00:34:54;;;;;;;;;;;19.70;99.90;19.80;99737.00;;;;336012;29;82652;-96
2023/07/16 00:35:06;;;;;;;;;;;19.70;99.90;19.90;99743.00;;;;332099;29;88492;-96
2023/07/16 00:35:19;;;;;;;;;;;19.70;99.90;19.90;99736.00;;;;333526;29;82606;-96
2023/07/16 00:35:32;;;;;;;;;;;19.70;99.90;19.80;99741.00;;;;335865;29;89276;-96
2023/07/16 00:35:48;;;;;;;;;;;19.70;99.90;19.90;99736.00;;;;336234;29;82554;-96
2023/07/16 00:36:01;;;;;;;;;;;19.70;99.90;19.80;99742.00;;;;333496;29;89413;-96
2023/07/16 00:36:13;;;;;;;;;;;19.70;99.90;19.80;99739.00;;;;334843;29;82534;-96
2023/07/16 00:36:26;;;;;;;;;;;19.70;99.90;19.90;99740.00;;;;335707;29;89178;-96
2023/07/16 00:36:38;;;;;;;;;;;19.70;99.90;19.90;99742.00;;;;337523;28;82299;-96
2023/07/16 00:36:50;;;;;;;;;;;19.70;99.90;19.90;99737.00;;;;333065;29;90061;-96
2023/07/16 00:37:03;;;;;;;;;;;19.70;99.90;19.90;99739.00;;;;334945;29;82542;-96
2023/07/16 00:37:15;;;;;;;;;;;19.70;99.90;19.90;99741.00;;;;337555;28;88530;-96
2023/07/16 00:37:27;;;;;;;;;;;19.70;99.90;19.90;99745.00;;;;334847;28;82602;-96
2023/07/16 00:37:39;;;;;;;;;;;19.70;99.90;19.90;99746.00;;;;335629;29;86870;-96
2023/07/16 00:37:51;;;;;;;;;;;19.70;99.90;19.90;99740.00;;;;335667;29;82532;-96
2023/07/16 00:38:03;;;;;;;;;;;19.70;99.90;19.90;99746.00;;;;334605;29;88366;-96
2023/07/16 00:38:18;;;;;;;;;;;19.70;99.90;19.80;99747.00;;;;334730;29;82563;-96
2023/07/16 00:38:31;;;;;;;;;;;19.80;99.90;19.80;99749.00;;;;331751;29;87178;-96
2023/07/16 00:38:45;;;;;;;;;;;19.80;99.90;19.90;99755.00;;;;333522;29;82461;-96
2023/07/16 00:38:57;;;;;;;;;;;19.70;99.90;19.90;99753.00;;;;334347;29;91467;-96
2023/07/16 00:39:10;;;;;;;;;;;19.80;99.90;20.00;99762.00;;;;336190;29;82535;-96
2023/07/16 00:39:22;;;;;;;;;;;19.80;99.90;20.00;99761.00;;;;335647;29;89795;-96
2023/07/16 00:39:34;;;;;;;;;;;19.70;99.90;20.00;99762.00;;;;334605;29;82518;-95
2023/07/16 00:39:46;;;;;;;;;;;19.80;99.90;19.90;99757.00;;;;334126;29;88421;-96
2023/07/16 00:39:57;;;;;;;;;;;19.80;99.90;19.90;99766.00;;;;334533;29;82563;-96
2023/07/16 00:40:10;;;;;;;;;;;19.80;99.90;20.00;99764.00;;;;330343;29;89927;-96
2023/07/16 00:40:21;;;;;;;;;;;19.80;99.90;19.90;99768.00;;;;334326;29;82585;-95
2023/07/16 00:40:33;;;;;;;;;;;19.80;99.90;20.00;99767.00;;;;335277;29;87273;-96
2023/07/16 00:40:46;;;;;;;;;;;19.80;99.90;19.90;99774.00;;;;335619;29;82597;-96
2023/07/16 00:40:58;;;;;;;;;;;19.80;99.90;20.00;99772.00;;;;335460;29;90131;-96
2023/07/16 00:41:10;;;;;;;;;;;19.80;99.90;19.90;99776.00;;;;332192;29;82561;-95
2023/07/16 00:41:22;;;;;;;;;;;19.80;99.90;19.90;99768.00;;;;332932;29;89377;-96
2023/07/16 00:41:34;;;;;;;;;;;19.80;99.90;19.80;99770.00;;;;334755;29;82610;-96
2023/07/16 00:41:46;;;;;;;;;;;19.80;99.90;19.80;99757.00;;;;333023;29;88357;-96
2023/07/16 00:41:58;;;;;;;;;;;19.80;99.90;19.90;99764.00;;;;335977;29;82556;-96
2023/07/16 00:42:10;;;;;;;;;;;19.80;99.90;20.00;99762.00;;;;331866;29;87231;-96
2023/07/16 00:42:22;;;;;;;;;;;19.80;99.90;20.00;99769.00;;;;334460;29;83268;-96
2023/07/16 00:42:34;;;;;;;;;;;19.80;99.90;20.00;99762.00;;;;334150;29;88377;-96
2023/07/16 00:42:46;;;;;;;;;;;19.80;99.90;20.00;99760.00;;;;335821;29;82585;-96
2023/07/16 00:42:58;;;;;;;;;;;19.80;99.90;20.00;99755.00;;;;334083;29;89935;-96
2023/07/16 00:43:10;;;;;;;;;;;19.80;99.90;20.00;99757.00;;;;333420;29;82533;-96
2023/07/16 00:43:22;;;;;;;;;;;19.80;99.90;19.90;99757.00;;;;334353;29;88339;-96
2023/07/16 00:43:34;;;;;;;;;;;19.80;99.90;20.00;99759.00;;;;334509;29;82567;-96
2023/07/16 00:43:46;;;;;;;;;;;19.80;99.90;20.00;99755.00;;;;332912;29;89842;-96
2023/07/16 00:43:58;;;;;;;;;;;19.80;99.90;20.00;99753.00;;;;335878;29;82549;-95
2023/07/16 00:44:10;;;;;;;;;;;19.80;99.90;20.00;99756.00;;;;334086;29;89726;-96
2023/07/16 00:44:22;;;;;;;;;;;19.80;99.90;20.10;99763.00;;;;334627;29;82491;-96
2023/07/16 00:44:35;;;;;;;;;;;19.80;99.90;20.00;99759.00;;;;332907;29;87257;-95
2023/07/16 00:44:46;;;;;;;;;;;19.80;99.90;20.00;99763.00;;;;335820;29;82571;-96
2023/07/16 00:44:59;;;;;;;;;;;19.90;99.90;20.00;99759.00;;;;334215;29;89501;-96
2023/07/16 00:45:16;;;;;;;;;;;19.80;99.90;19.90;99767.00;;;;333406;29;82545;-96
2023/07/16 00:45:28;;;;;;;;;;;19.90;99.90;19.90;99763.00;;;;334252;29;89043;-96
2023/07/16 00:45:40;;;;;;;;;;;19.90;99.90;20.00;99767.00;;;;335973;28;82558;-96
2023/07/16 00:45:52;;;;;;;;;;;19.80;99.90;20.00;99773.00;;;;336835;28;87341;-96
2023/07/16 00:46:05;;;;;;;;;;;19.90;99.90;20.00;99772.00;;;;333318;29;82592;-96
2023/07/16 00:46:17;;;;;;;;;;;19.90;99.90;20.00;99771.00;;;;332749;29;89107;-96
2023/07/16 00:46:30;;;;;;;;;;;19.90;99.90;20.00;99769.00;;;;335972;29;82425;-96
2023/07/16 00:46:43;;;;;;;;;;;19.90;99.90;20.10;99770.00;;;;335649;28;88100;-96
2023/07/16 00:46:55;;;;;;;;;;;19.90;99.90;19.90;99773.00;;;;332096;29;82416;-96
2023/07/16 00:47:08;;;;;;;;;;;19.90;99.90;20.00;99770.00;;;;334273;29;88367;-96
2023/07/16 00:47:20;;;;;;;;;;;19.80;99.90;20.00;99771.00;;;;334470;28;82628;-96
2023/07/16 00:47:32;;;;;;;;;;;19.90;99.90;20.10;99775.00;;;;332751;29;87130;-96
2023/07/16 00:47:44;;;;;;;;;;;19.90;99.90;20.10;99772.00;;;;333301;29;82637;-96
2023/07/16 00:47:56;;;;;;;;;;;19.90;99.90;20.20;99775.00;;;;335550;29;88587;-95
2023/07/16 00:48:08;;;;;;;;;;;19.90;99.90;20.10;99767.00;;;;335569;29;82479;-95
2023/07/16 00:48:20;;;;;;;;;;;19.90;99.90;20.00;99775.00;;;;335219;29;90003;-96
2023/07/16 00:48:32;;;;;;;;;;;19.90;99.90;20.10;99774.00;;;;335781;29;82553;-96
2023/07/16 00:48:45;;;;;;;;;;;19.90;99.90;20.10;99771.00;;;;332936;29;87518;-96
2023/07/16 00:48:57;;;;;;;;;;;19.90;99.90;20.10;99774.00;;;;334389;29;82321;-95
2023/07/16 00:49:09;;;;;;;;;;;19.90;99.90;20.00;99773.00;;;;333947;29;88133;-96
2023/07/16 00:49:21;;;;;;;;;;;19.90;99.90;20.00;99771.00;;;;335769;29;82606;-96
2023/07/16 00:49:33;;;;;;;;;;;19.90;99.90;20.00;99776.00;;;;334189;29;88997;-96
2023/07/16 00:49:45;;;;;;;;;;;19.90;99.90;20.00;99777.00;;;;335654;29;82512;-96
2023/07/16 00:49:58;;;;;;;;;;;19.90;99.90;20.10;99783.00;;;;335430;29;87301;-96
2023/07/16 00:50:10;;;;;;;;;;;19.90;99.90;20.10;99781.00;;;;335574;28;82653;-96
2023/07/16 00:50:22;;;;;;;;;;;19.90;99.90;20.10;99780.00;;;;334077;29;88846;-96
2023/07/16 00:50:39;;;;;;;;;;;19.90;99.90;20.10;99785.00;;;;335803;29;82579;-96
2023/07/16 00:50:51;;;;;;;;;;;19.90;99.90;20.20;99782.00;;;;335266;29;90252;-96
2023/07/16 00:51:03;;;;;;;;;;;19.90;99.90;20.20;99784.00;;;;333347;29;82558;-96
2023/07/16 00:51:16;;;;;;;;;;;20.00;99.90;20.20;99779.00;;;;333924;29;90523;-96
2023/07/16 00:51:28;;;;;;;;;;;20.00;99.90;20.20;99773.00;;;;335605;29;82533;-96
2023/07/16 00:51:41;;;;;;;;;;;20.00;99.90;20.10;99779.00;;;;332942;29;89561;-96
2023/07/16 00:51:53;;;;;;;;;;;20.00;99.90;20.10;99779.00;;;;333234;29;82533;-96
2023/07/16 00:52:07;;;;;;;;;;;20.00;99.90;20.20;99780.00;;;;331928;29;87201;-95
2023/07/16 00:52:19;;;;;;;;;;;20.00;99.90;20.00;99780.00;;;;331986;29;82602;-96
2023/07/16 00:52:32;;;;;;;;;;;19.90;99.90;19.80;99779.00;;;;335581;29;89096;-96
2023/07/16 00:52:44;;;;;;;;;;;19.90;99.90;19.80;99778.00;;;;334588;29;82630;-96
2023/07/16 00:52:56;;;;;;;;;;;19.90;99.90;19.90;99767.00;;;;334221;29;90451;-96
2023/07/16 00:53:09;;;;;;;;;;;19.90;99.90;20.00;99768.00;;;;334586;29;82599;-96
2023/07/16 00:53:21;;;;;;;;;;;19.90;99.90;20.00;99768.00;;;;335426;29;89954;-96
2023/07/16 00:53:33;;;;;;;;;;;19.90;99.90;20.00;99769.00;;;;337276;28;83384;-96
2023/07/16 00:53:48;;;;;;;;;;;19.90;99.90;20.00;99763.00;;;;335600;29;87233;-96
2023/07/16 00:54:01;;;;;;;;;;;19.90;99.90;20.00;99766.00;;;;335681;29;82560;-96
2023/07/16 00:54:15;;;;;;;;;;;19.90;99.90;20.10;99758.00;;;;335402;29;88349;-96
2023/07/16 00:54:29;;;;;;;;;;;19.90;99.90;20.10;99761.00;;;;337274;28;82541;-96
2023/07/16 00:54:41;;;;;;;;;;;19.90;99.90;20.10;99761.00;;;;335553;29;89563;-96
2023/07/16 00:54:53;;;;;;;;;;;19.90;99.90;20.20;99760.00;;;;333156;29;82589;-96
2023/07/16 00:55:06;;;;;;;;;;;19.90;99.90;20.10;99761.00;;;;335158;29;89140;-96
2023/07/16 00:55:18;;;;;;;;;;;19.90;99.90;20.10;99758.00;;;;334367;29;82548;-96
2023/07/16 00:55:31;;;;;;;;;;;19.90;99.90;20.10;99763.00;;;;332667;29;90817;-96
2023/07/16 00:55:45;;;;;;;;;;;19.90;99.90;20.10;99756.00;;;;335997;29;82601;-96
2023/07/16 00:55:57;;;;;;;;;;;19.90;99.90;20.10;99753.00;;;;334408;29;87278;-96
2023/07/16 00:56:09;;;;;;;;;;;19.90;99.90;20.10;99753.00;;;;333572;29;82383;-96
2023/07/16 00:56:24;;;;;;;;;;;19.90;99.90;20.10;99749.00;;;;334478;29;87277;-96
2023/07/16 00:56:37;;;;;;;;;;;19.90;99.90;20.10;99749.00;;;;335805;28;82570;-96
2023/07/16 00:56:49;;;;;;;;;;;19.90;99.90;20.10;99752.00;;;;332731;29;88297;-96
2023/07/16 00:57:01;;;;;;;;;;;19.90;99.90;20.20;99746.00;;;;334644;29;82601;-96
2023/07/16 00:57:14;;;;;;;;;;;19.90;99.90;20.00;99743.00;;;;336669;28;88404;-95
2023/07/16 00:57:26;;;;;;;;;;;19.90;99.90;20.00;99751.00;;;;334628;29;82653;-95
2023/07/16 00:57:39;;;;;;;;;;;19.90;99.90;20.10;99742.00;;;;334034;29;90034;-96
2023/07/16 00:57:53;;;;;;;;;;;19.90;99.90;20.00;99746.00;;;;337100;28;82661;-96
2023/07/16 00:58:06;;;;;;;;;;;19.90;99.90;20.00;99742.00;;;;336667;28;89151;-96
2023/07/16 00:58:18;;;;;;;;;;;19.90;99.90;20.10;99740.00;;;;335759;28;82531;-96
2023/07/16 00:58:31;;;;;;;;;;;19.90;99.90;20.10;99742.00;;;;335424;29;88912;-96
2023/07/16 00:58:44;;;;;;;;;;;19.90;99.90;20.10;99738.00;;;;335733;29;82530;-96
2023/07/16 00:58:56;;;;;;;;;;;19.90;99.90;20.10;99736.00;;;;335037;29;89942;-96
2023/07/16 00:59:08;;;;;;;;;;;20.00;99.90;20.00;99739.00;;;;335749;29;82526;-96
2023/07/16 00:59:21;;;;;;;;;;;19.90;99.90;20.00;99738.00;;;;336610;28;89388;-96
2023/07/16 00:59:33;;;;;;;;;;;19.90;99.90;19.90;99737.00;;;;335857;29;82562;-96
2023/07/16 00:59:46;;;;;;;;;;;19.90;99.90;20.00;99736.00;;;;335270;29;88190;-96
2023/07/16 00:59:58;;;;;;;;;;;19.90;99.90;20.10;99739.00;;;;335789;29;82547;-96
2023/07/16 01:00:11;;;;;;;;;;;19.90;99.90;20.10;99738.00;;;;332748;29;87228;-96
2023/07/16 01:00:23;;;;;;;;;;;19.90;99.90;20.00;99740.00;;;;335848;29;82642;-96
2023/07/16 01:00:37;;;;;;;;;;;19.90;99.90;20.10;99746.00;;;;335153;29;89145;-96
2023/07/16 01:00:49;;;;;;;;;;;19.90;99.90;20.00;99747.00;;;;333157;29;82333;-96
2023/07/16 01:01:02;;;;;;;;;;;19.90;99.90;20.00;99747.00;;;;335433;28;87444;-96
2023/07/16 01:01:14;;;;;;;;;;;19.90;99.90;19.90;99751.00;;;;334486;29;82576;-96
2023/07/16 01:01:27;;;;;;;;;;;19.90;99.90;20.00;99753.00;;;;332784;29;89087;-96
2023/07/16 01:01:39;;;;;;;;;;;19.90;99.90;20.10;99754.00;;;;337079;28;82610;-96
2023/07/16 01:01:51;;;;;;;;;;;19.90;99.90;20.10;99766.00;;;;336667;28;88410;-96
2023/07/16 01:02:03;;;;;;;;;;;19.90;99.90;20.10;99751.00;;;;333321;29;82526;-96
2023/07/16 01:02:16;;;;;;;;;;;19.90;99.90;20.20;99756.00;;;;335267;29;88298;-96
2023/07/16 01:02:28;;;;;;;;;;;19.90;99.90;20.10;99759.00;;;;333056;29;82548;-96
2023/07/16 01:02:41;;;;;;;;;;;19.90;99.90;20.10;99761.00;;;;335172;29;89568;-96
2023/07/16 01:02:53;;;;;;;;;;;19.90;99.90;20.10;99759.00;;;;334366;29;82554;-96
2023/07/16 01:03:08;;;;;;;;;;;20.00;99.90;20.10;99766.00;;;;334022;29;87330;-95
2023/07/16 01:03:21;;;;;;;;;;;20.00;99.90;20.10;99769.00;;;;334303;29;82731;-96
2023/07/16 01:03:33;;;;;;;;;;;19.90;99.90;20.20;99757.00;;;;336578;28;89358;-96
2023/07/16 01:03:45;;;;;;;;;;;20.00;99.90;20.20;99765.00;;;;331805;29;82533;-96
2023/07/16 01:03:58;;;;;;;;;;;20.00;99.90;20.20;99756.00;;;;335157;29;90021;-96
2023/07/16 01:04:10;;;;;;;;;;;20.00;99.90;20.10;99762.00;;;;335643;29;82524;-96
2023/07/16 01:04:22;;;;;;;;;;;20.00;99.90;20.10;99770.00;;;;335123;29;87377;-96